createdAt,value
2016-09-29T00:00:22.035Z,20.06
2016-09-29T00:01:22.082Z,20.05
2016-09-29T00:02:22.010Z,20.12
2016-09-29T00:03:22.059Z,19.97
2016-09-29T00:04:22.053Z,20.02
2016-09-29T00:05:22.059Z,20.03
2016-09-29T00:06:22.038Z,20.02
2016-09-29T00:07:22.040Z,20.03
2016-09-29T00:08:22.065Z,19.95
2016-09-29T00:09:22.056Z,19.98
2016-09-29T00:10:22.107Z,20.05
2016-09-29T00:11:22.043Z,19.97
2016-09-29T00:12:22.066Z,19.97
2016-09-29T00:13:22.078Z,20.03
2016-09-29T00:14:22.086Z,20.09
2016-09-29T00:15:22.101Z,19.98
2016-09-29T00:16:22.076Z,19.94
2016-09-29T00:17:22.105Z,20
2016-09-29T00:18:22.073Z,20.03
2016-09-29T00:19:22.083Z,20.02
2016-09-29T00:20:22.089Z,19.97
2016-09-29T00:21:22.095Z,20.05
2016-09-29T00:22:22.123Z,20.06
2016-09-29T00:23:22.067Z,20
2016-09-29T00:24:22.095Z,20.08
2016-09-29T00:25:22.073Z,20.06
2016-09-29T00:26:22.079Z,19.94
2016-09-29T00:27:22.044Z,19.98
2016-09-29T00:28:22.078Z,20
2016-09-29T00:29:22.043Z,20.05
2016-09-29T00:30:22.086Z,20.08
2016-09-29T00:31:22.043Z,20.08
2016-09-29T00:32:22.075Z,20.1
2016-09-29T00:33:22.052Z,20.12
2016-09-29T00:34:22.056Z,20.09
2016-09-29T00:35:22.078Z,19.95
2016-09-29T00:36:22.112Z,19.94
2016-09-29T00:37:22.080Z,20.03
2016-09-29T00:38:22.079Z,20.08
2016-09-29T00:39:22.059Z,20.02
2016-09-29T00:40:22.050Z,20
2016-09-29T00:41:22.072Z,19.94
2016-09-29T00:42:22.072Z,19.9
2016-09-29T00:43:22.185Z,20.02
2016-09-29T00:44:22.059Z,19.97
2016-09-29T00:45:22.104Z,19.98
2016-09-29T00:46:22.104Z,19.95
2016-09-29T00:47:22.086Z,19.94
2016-09-29T00:48:22.113Z,19.91
2016-09-29T00:49:22.092Z,19.88
2016-09-29T00:50:22.100Z,19.83
2016-09-29T00:51:22.101Z,19.75
2016-09-29T00:52:22.097Z,19.79
2016-09-29T00:53:22.064Z,19.75
2016-09-29T00:54:22.077Z,19.72
2016-09-29T00:55:22.082Z,19.68
2016-09-29T00:56:22.102Z,19.7
2016-09-29T00:57:22.085Z,19.68
2016-09-29T00:58:22.076Z,19.6
2016-09-29T00:59:22.098Z,19.57
2016-09-29T01:00:22.066Z,19.55
2016-09-29T01:01:22.108Z,19.53
2016-09-29T01:02:22.073Z,19.58
2016-09-29T01:03:22.085Z,19.6
2016-09-29T01:04:22.115Z,19.4
2016-09-29T01:05:22.113Z,19.5
2016-09-29T01:06:22.118Z,19.51
2016-09-29T01:07:22.123Z,19.5
2016-09-29T01:08:22.111Z,19.48
2016-09-29T01:09:22.098Z,19.5
2016-09-29T01:10:22.114Z,19.38
2016-09-29T01:11:22.181Z,19.38
2016-09-29T01:12:22.148Z,19.35
2016-09-29T01:13:22.099Z,19.33
2016-09-29T01:14:22.109Z,19.38
2016-09-29T01:15:22.111Z,19.42
2016-09-29T01:16:22.753Z,19.4
2016-09-29T01:17:22.104Z,19.43
2016-09-29T01:18:22.126Z,19.33
2016-09-29T01:19:22.120Z,19.32
2016-09-29T01:20:22.111Z,19.28
2016-09-29T01:21:22.144Z,19.33
2016-09-29T01:22:22.134Z,19.25
2016-09-29T01:23:22.144Z,19.38
2016-09-29T01:24:22.127Z,19.36
2016-09-29T01:25:22.114Z,19.31
2016-09-29T01:26:22.141Z,19.14
2016-09-29T01:27:22.111Z,19.17
2016-09-29T01:28:22.100Z,19.2
2016-09-29T01:29:22.116Z,19.17
2016-09-29T01:30:22.095Z,19.15
2016-09-29T01:31:22.152Z,19.14
2016-09-29T01:32:22.121Z,19.05
2016-09-29T01:33:22.104Z,19.15
2016-09-29T01:34:22.127Z,19.05
2016-09-29T01:35:22.816Z,19.06
2016-09-29T01:36:22.136Z,19.14
2016-09-29T01:37:22.136Z,19.06
2016-09-29T01:38:22.118Z,19.06
2016-09-29T01:39:22.125Z,19.06
2016-09-29T01:40:22.120Z,19.08
2016-09-29T01:41:22.165Z,19.02
2016-09-29T01:42:22.132Z,19.06
2016-09-29T01:43:22.181Z,18.99
2016-09-29T01:44:22.172Z,19.05
2016-09-29T01:45:22.137Z,19.05
2016-09-29T01:46:22.149Z,18.95
2016-09-29T01:47:22.176Z,19.01
2016-09-29T01:48:22.117Z,18.97
2016-09-29T01:49:22.166Z,19.01
2016-09-29T01:50:22.125Z,18.82
2016-09-29T01:51:22.147Z,18.98
2016-09-29T01:52:22.152Z,18.87
2016-09-29T01:53:22.121Z,18.8
2016-09-29T01:54:22.126Z,18.84
2016-09-29T01:55:22.159Z,18.9
2016-09-29T01:56:22.164Z,18.83
2016-09-29T01:57:22.147Z,18.84
2016-09-29T01:58:22.139Z,18.84
2016-09-29T01:59:22.123Z,18.82
2016-09-29T02:00:22.172Z,18.82
2016-09-29T02:01:22.163Z,18.8
2016-09-29T02:02:22.143Z,18.76
2016-09-29T02:03:22.140Z,18.72
2016-09-29T02:04:22.164Z,18.79
2016-09-29T02:05:22.157Z,18.68
2016-09-29T02:06:22.162Z,18.68
2016-09-29T02:07:22.152Z,18.87
2016-09-29T02:08:22.163Z,18.7
2016-09-29T02:09:22.183Z,18.65
2016-09-29T02:10:22.159Z,18.64
2016-09-29T02:11:22.203Z,18.73
2016-09-29T02:12:22.164Z,18.65
2016-09-29T02:13:22.178Z,18.62
2016-09-29T02:14:22.142Z,18.59
2016-09-29T02:15:22.178Z,18.64
2016-09-29T02:16:22.195Z,18.72
2016-09-29T02:17:22.190Z,18.64
2016-09-29T02:18:22.227Z,18.64
2016-09-29T02:19:22.160Z,18.67
2016-09-29T02:20:22.222Z,18.74
2016-09-29T02:21:22.195Z,18.61
2016-09-29T02:22:22.187Z,18.68
2016-09-29T02:23:22.184Z,18.64
2016-09-29T02:24:22.200Z,18.67
2016-09-29T02:25:22.185Z,18.62
2016-09-29T02:26:22.168Z,18.52
2016-09-29T02:27:22.194Z,18.68
2016-09-29T02:28:22.167Z,18.62
2016-09-29T02:29:22.179Z,18.57
2016-09-29T02:30:22.138Z,18.58
2016-09-29T02:31:22.601Z,18.62
2016-09-29T02:32:22.163Z,18.54
2016-09-29T02:33:22.171Z,18.62
2016-09-29T02:34:22.181Z,18.67
2016-09-29T02:35:22.172Z,18.58
2016-09-29T02:36:22.190Z,18.57
2016-09-29T02:37:22.181Z,18.5
2016-09-29T02:38:22.194Z,18.55
2016-09-29T02:39:22.168Z,18.67
2016-09-29T02:40:22.193Z,18.55
2016-09-29T02:41:22.240Z,18.54
2016-09-29T02:42:22.222Z,18.57
2016-09-29T02:43:22.191Z,18.58
2016-09-29T02:44:22.173Z,18.64
2016-09-29T02:45:22.232Z,18.61
2016-09-29T02:46:22.199Z,18.55
2016-09-29T02:47:22.191Z,18.64
2016-09-29T02:48:22.232Z,18.54
2016-09-29T02:49:22.181Z,18.5
2016-09-29T02:50:22.211Z,18.54
2016-09-29T02:51:22.210Z,18.52
2016-09-29T02:52:22.198Z,18.54
2016-09-29T02:53:22.179Z,18.5
2016-09-29T02:54:22.232Z,18.52
2016-09-29T02:55:22.180Z,18.46
2016-09-29T02:56:22.227Z,18.34
2016-09-29T02:57:22.245Z,18.44
2016-09-29T02:58:22.178Z,18.44
2016-09-29T02:59:22.255Z,18.37
2016-09-29T03:00:22.223Z,18.46
2016-09-29T03:01:22.207Z,18.43
2016-09-29T03:02:22.259Z,18.4
2016-09-29T03:03:22.200Z,18.37
2016-09-29T03:04:22.204Z,18.46
2016-09-29T03:05:22.210Z,18.43
2016-09-29T03:06:22.201Z,18.39
2016-09-29T03:07:22.236Z,18.4
2016-09-29T03:08:22.210Z,18.36
2016-09-29T03:09:22.204Z,18.39
2016-09-29T03:10:22.209Z,18.37
2016-09-29T03:11:22.191Z,18.37
2016-09-29T03:12:22.234Z,18.42
2016-09-29T03:13:22.219Z,18.36
2016-09-29T03:14:22.258Z,18.43
2016-09-29T03:15:22.216Z,18.37
2016-09-29T03:16:22.223Z,18.37
2016-09-29T03:17:22.216Z,18.42
2016-09-29T03:18:22.200Z,18.42
2016-09-29T03:19:22.231Z,18.37
2016-09-29T03:20:22.207Z,18.39
2016-09-29T03:21:22.230Z,18.4
2016-09-29T03:22:22.276Z,18.39
2016-09-29T03:23:22.317Z,18.37
2016-09-29T03:24:22.222Z,18.37
2016-09-29T03:25:22.207Z,18.31
2016-09-29T03:26:23.093Z,18.39
2016-09-29T03:27:22.236Z,18.34
2016-09-29T03:28:22.198Z,18.42
2016-09-29T03:29:22.235Z,18.36
2016-09-29T03:30:22.255Z,18.5
2016-09-29T03:31:22.257Z,18.42
2016-09-29T03:32:22.341Z,18.47
2016-09-29T03:33:22.246Z,18.44
2016-09-29T03:34:22.253Z,18.43
2016-09-29T03:35:22.246Z,18.43
2016-09-29T03:36:22.257Z,18.37
2016-09-29T03:37:22.246Z,18.33
2016-09-29T03:38:22.220Z,18.4
2016-09-29T03:39:22.234Z,18.39
2016-09-29T03:40:22.236Z,18.37
2016-09-29T03:41:22.264Z,18.25
2016-09-29T03:42:23.198Z,18.31
2016-09-29T03:43:22.265Z,18.33
2016-09-29T03:44:22.226Z,18.31
2016-09-29T03:45:22.232Z,18.25
2016-09-29T03:46:22.248Z,18.24
2016-09-29T03:47:22.262Z,18.43
2016-09-29T03:48:22.252Z,18.29
2016-09-29T03:49:22.242Z,18.29
2016-09-29T03:50:22.271Z,18.22
2016-09-29T03:51:22.276Z,18.22
2016-09-29T03:52:22.286Z,18.27
2016-09-29T03:53:22.261Z,18.24
2016-09-29T03:54:22.297Z,18.29
2016-09-29T03:55:22.259Z,18.25
2016-09-29T03:56:22.286Z,18.28
2016-09-29T03:57:22.311Z,18.22
2016-09-29T03:58:22.255Z,18.24
2016-09-29T03:59:22.263Z,18.22
2016-09-29T04:00:22.256Z,18.24
2016-09-29T04:01:22.251Z,18.29
2016-09-29T04:02:22.373Z,18.21
2016-09-29T04:03:22.254Z,18.17
2016-09-29T04:04:22.241Z,18.07
2016-09-29T04:05:22.275Z,18.22
2016-09-29T04:06:22.267Z,18.1
2016-09-29T04:07:22.278Z,18.07
2016-09-29T04:08:22.260Z,18.19
2016-09-29T04:09:22.265Z,18.15
2016-09-29T04:10:22.266Z,18.19
2016-09-29T04:11:22.289Z,18.1
2016-09-29T04:12:22.264Z,18.1
2016-09-29T04:13:22.258Z,18.12
2016-09-29T04:14:22.283Z,18.17
2016-09-29T04:15:22.300Z,18.03
2016-09-29T04:16:22.275Z,18.02
2016-09-29T04:17:22.271Z,17.99
2016-09-29T04:18:22.271Z,18.1
2016-09-29T04:19:22.282Z,18.06
2016-09-29T04:20:22.286Z,17.99
2016-09-29T04:21:22.260Z,18.12
2016-09-29T04:22:22.286Z,18.02
2016-09-29T04:23:22.275Z,18.02
2016-09-29T04:24:22.266Z,18.02
2016-09-29T04:25:22.286Z,18.02
2016-09-29T04:26:22.355Z,18.06
2016-09-29T04:27:22.274Z,18.02
2016-09-29T04:28:22.307Z,18
2016-09-29T04:29:22.323Z,18.1
2016-09-29T04:30:22.278Z,18.07
2016-09-29T04:31:22.286Z,18.07
2016-09-29T04:32:22.383Z,18.15
2016-09-29T04:33:22.334Z,18.17
2016-09-29T04:34:22.291Z,18.09
2016-09-29T04:35:22.300Z,18.12
2016-09-29T04:36:22.306Z,18.17
2016-09-29T04:37:22.334Z,18.02
2016-09-29T04:38:22.297Z,18.12
2016-09-29T04:39:22.293Z,18.13
2016-09-29T04:40:22.301Z,18.1
2016-09-29T04:41:22.310Z,18.06
2016-09-29T04:42:22.332Z,18.12
2016-09-29T04:43:22.290Z,18.09
2016-09-29T04:44:22.321Z,18.12
2016-09-29T04:45:22.291Z,18.13
2016-09-29T04:46:22.302Z,18.03
2016-09-29T04:47:22.324Z,18.07
2016-09-29T04:48:22.296Z,18.04
2016-09-29T04:49:22.290Z,18
2016-09-29T04:50:22.294Z,17.91
2016-09-29T04:51:22.302Z,17.91
2016-09-29T04:52:22.310Z,17.89
2016-09-29T04:53:22.314Z,17.95
2016-09-29T04:54:22.289Z,17.89
2016-09-29T04:55:22.300Z,17.91
2016-09-29T04:56:22.292Z,17.88
2016-09-29T04:57:22.337Z,17.91
2016-09-29T04:58:22.331Z,17.89
2016-09-29T04:59:22.277Z,17.89
2016-09-29T05:00:22.295Z,17.92
2016-09-29T05:01:22.291Z,17.87
2016-09-29T05:02:22.317Z,17.91
2016-09-29T05:03:22.301Z,17.85
2016-09-29T05:04:22.320Z,17.88
2016-09-29T05:05:22.289Z,17.87
2016-09-29T05:06:22.309Z,17.91
2016-09-29T05:07:22.315Z,17.76
2016-09-29T05:08:22.291Z,17.87
2016-09-29T05:09:22.315Z,17.76
2016-09-29T05:10:22.326Z,17.88
2016-09-29T05:11:22.337Z,17.74
2016-09-29T05:12:22.554Z,17.73
2016-09-29T05:13:22.334Z,17.82
2016-09-29T05:14:22.328Z,17.84
2016-09-29T05:15:22.326Z,17.78
2016-09-29T05:16:22.356Z,17.73
2016-09-29T05:17:22.362Z,17.76
2016-09-29T05:18:22.361Z,17.74
2016-09-29T05:19:22.310Z,17.71
2016-09-29T05:20:22.366Z,17.74
2016-09-29T05:21:22.328Z,17.69
2016-09-29T05:22:22.527Z,17.7
2016-09-29T05:23:22.352Z,17.67
2016-09-29T05:24:23.199Z,17.7
2016-09-29T05:25:22.992Z,17.73
2016-09-29T05:26:22.337Z,17.67
2016-09-29T05:27:22.342Z,17.71
2016-09-29T05:28:22.502Z,17.66
2016-09-29T05:29:22.377Z,17.57
2016-09-29T05:30:22.377Z,17.55
2016-09-29T05:31:22.355Z,17.66
2016-09-29T05:32:22.337Z,17.64
2016-09-29T05:33:22.340Z,17.51
2016-09-29T05:34:22.390Z,17.5
2016-09-29T05:35:22.372Z,17.59
2016-09-29T05:36:22.352Z,17.62
2016-09-29T05:37:22.329Z,17.54
2016-09-29T05:38:22.333Z,17.64
2016-09-29T05:39:22.334Z,17.73
2016-09-29T05:40:22.351Z,17.63
2016-09-29T05:41:22.347Z,17.64
2016-09-29T05:42:22.366Z,17.59
2016-09-29T05:43:22.853Z,17.67
2016-09-29T05:44:22.352Z,17.67
2016-09-29T05:45:22.391Z,17.67
2016-09-29T05:46:22.348Z,17.64
2016-09-29T05:47:22.344Z,17.69
2016-09-29T05:48:22.338Z,17.67
2016-09-29T05:49:22.367Z,17.73
2016-09-29T05:50:22.346Z,17.78
2016-09-29T05:51:22.363Z,17.78
2016-09-29T05:52:22.348Z,17.73
2016-09-29T05:53:22.385Z,17.76
2016-09-29T05:54:22.389Z,17.73
2016-09-29T05:55:22.382Z,17.76
2016-09-29T05:56:22.427Z,17.79
2016-09-29T05:57:22.380Z,17.64
2016-09-29T05:58:22.415Z,17.63
2016-09-29T05:59:22.401Z,17.67
2016-09-29T06:00:22.375Z,17.66
2016-09-29T06:01:22.477Z,17.69
2016-09-29T06:02:22.446Z,17.64
2016-09-29T06:03:22.371Z,17.64
2016-09-29T06:04:22.365Z,17.66
2016-09-29T06:05:22.362Z,17.67
2016-09-29T06:06:22.379Z,17.64
2016-09-29T06:07:22.391Z,17.69
2016-09-29T06:08:22.411Z,17.57
2016-09-29T06:09:22.405Z,17.57
2016-09-29T06:10:22.390Z,17.66
2016-09-29T06:11:22.380Z,17.62
2016-09-29T06:12:22.399Z,17.67
2016-09-29T06:13:22.463Z,17.7
2016-09-29T06:14:22.413Z,17.78
2016-09-29T06:15:22.595Z,17.62
2016-09-29T06:16:22.405Z,17.74
2016-09-29T06:17:22.423Z,17.69
2016-09-29T06:18:22.381Z,17.63
2016-09-29T06:19:22.444Z,17.64
2016-09-29T06:20:22.401Z,17.66
2016-09-29T06:21:22.441Z,17.69
2016-09-29T06:22:22.417Z,17.66
2016-09-29T06:23:22.421Z,17.73
2016-09-29T06:24:22.453Z,17.66
2016-09-29T06:25:22.404Z,17.71
2016-09-29T06:26:22.382Z,17.71
2016-09-29T06:27:22.388Z,17.76
2016-09-29T06:28:22.370Z,17.78
2016-09-29T06:29:22.398Z,17.88
2016-09-29T06:30:22.388Z,17.76
2016-09-29T06:31:22.379Z,17.81
2016-09-29T06:32:22.404Z,17.74
2016-09-29T06:33:22.408Z,17.78
2016-09-29T06:34:22.427Z,17.88
2016-09-29T06:35:22.393Z,17.84
2016-09-29T06:36:22.385Z,17.76
2016-09-29T06:37:22.410Z,17.79
2016-09-29T06:38:22.379Z,17.84
2016-09-29T06:39:22.419Z,17.79
2016-09-29T06:40:22.411Z,17.89
2016-09-29T06:41:22.403Z,17.81
2016-09-29T06:42:22.407Z,17.84
2016-09-29T06:43:22.391Z,17.76
2016-09-29T06:44:22.431Z,17.91
2016-09-29T06:45:22.413Z,17.85
2016-09-29T06:46:22.424Z,17.87
2016-09-29T06:47:22.411Z,17.85
2016-09-29T06:48:22.411Z,17.87
2016-09-29T06:49:22.410Z,17.87
2016-09-29T06:50:22.414Z,17.85
2016-09-29T06:51:22.434Z,17.92
2016-09-29T06:52:22.458Z,17.89
2016-09-29T06:53:22.423Z,17.85
2016-09-29T06:54:22.409Z,17.89
2016-09-29T06:55:22.424Z,17.85
2016-09-29T06:56:22.407Z,17.88
2016-09-29T06:57:22.407Z,17.91
2016-09-29T06:58:22.407Z,18.17
2016-09-29T06:59:22.417Z,18.07
2016-09-29T07:00:22.465Z,18.1
2016-09-29T07:01:22.446Z,18.19
2016-09-29T07:02:22.419Z,18.25
2016-09-29T07:03:22.440Z,18.39
2016-09-29T07:04:22.448Z,18.43
2016-09-29T07:05:22.408Z,18.43
2016-09-29T07:06:22.423Z,18.58
2016-09-29T07:07:22.434Z,18.7
2016-09-29T07:08:22.445Z,18.64
2016-09-29T07:09:22.442Z,18.68
2016-09-29T07:10:22.441Z,18.67
2016-09-29T07:11:22.407Z,18.68
2016-09-29T07:12:22.427Z,18.68
2016-09-29T07:13:22.460Z,18.86
2016-09-29T07:14:22.420Z,18.9
2016-09-29T07:15:22.452Z,19.02
2016-09-29T07:16:22.438Z,19.01
2016-09-29T07:17:22.458Z,19.02
2016-09-29T07:18:22.443Z,19.05
2016-09-29T07:19:22.468Z,19.13
2016-09-29T07:20:22.437Z,19.08
2016-09-29T07:21:22.479Z,19.18
2016-09-29T07:22:22.447Z,19.02
2016-09-29T07:23:22.444Z,19.1
2016-09-29T07:24:22.462Z,19.15
2016-09-29T07:25:22.447Z,19.24
2016-09-29T07:26:22.444Z,19.18
2016-09-29T07:27:22.459Z,19.21
2016-09-29T07:28:22.419Z,19.28
2016-09-29T07:29:22.424Z,19.31
2016-09-29T07:30:22.435Z,19.24
2016-09-29T07:31:22.464Z,19.23
2016-09-29T07:32:22.459Z,19.05
2016-09-29T07:33:22.483Z,19.02
2016-09-29T07:34:22.474Z,18.97
2016-09-29T07:35:22.456Z,19.01
2016-09-29T07:36:22.472Z,18.95
2016-09-29T07:37:22.471Z,18.82
2016-09-29T07:38:22.464Z,18.95
2016-09-29T07:39:22.444Z,18.98
2016-09-29T07:40:22.463Z,19.02
2016-09-29T07:41:22.485Z,19.05
2016-09-29T07:42:22.463Z,19.08
2016-09-29T07:43:22.483Z,19.17
2016-09-29T07:44:22.476Z,19.2
2016-09-29T07:45:22.497Z,19.13
2016-09-29T07:46:22.566Z,19.2
2016-09-29T07:47:22.453Z,19.24
2016-09-29T07:48:22.476Z,19.32
2016-09-29T07:49:22.475Z,19.25
2016-09-29T07:50:22.482Z,19.25
2016-09-29T07:51:22.495Z,19.33
2016-09-29T07:52:22.488Z,19.36
2016-09-29T07:53:22.463Z,19.35
2016-09-29T07:54:22.539Z,19.47
2016-09-29T07:55:22.490Z,19.53
2016-09-29T07:56:22.504Z,19.4
2016-09-29T07:57:22.476Z,19.35
2016-09-29T07:58:22.511Z,19.53
2016-09-29T07:59:22.477Z,19.57
2016-09-29T08:00:22.699Z,19.61
2016-09-29T08:01:22.467Z,19.6
2016-09-29T08:02:22.464Z,19.65
2016-09-29T08:03:22.469Z,19.63
2016-09-29T08:04:22.489Z,19.55
2016-09-29T08:05:22.521Z,19.54
2016-09-29T08:06:22.485Z,19.54
2016-09-29T08:07:22.509Z,19.58
2016-09-29T08:08:22.515Z,19.58
2016-09-29T08:09:22.519Z,19.65
2016-09-29T08:10:22.547Z,19.53
2016-09-29T08:11:22.476Z,19.48
2016-09-29T08:12:22.522Z,19.46
2016-09-29T08:13:22.595Z,19.39
2016-09-29T08:14:22.502Z,19.51
2016-09-29T08:15:22.499Z,19.54
2016-09-29T08:16:22.569Z,19.46
2016-09-29T08:17:22.592Z,19.57
2016-09-29T08:18:22.541Z,19.55
2016-09-29T08:19:22.480Z,19.65
2016-09-29T08:20:22.513Z,19.6
2016-09-29T08:21:22.515Z,19.63
2016-09-29T08:22:22.547Z,19.69
2016-09-29T08:23:22.535Z,19.63
2016-09-29T08:24:22.560Z,19.76
2016-09-29T08:25:22.510Z,19.78
2016-09-29T08:26:22.532Z,19.91
2016-09-29T08:27:22.526Z,19.9
2016-09-29T08:28:22.531Z,20.02
2016-09-29T08:29:22.590Z,20.1
2016-09-29T08:30:22.519Z,20.1
2016-09-29T08:31:22.521Z,20.18
2016-09-29T08:32:22.519Z,20.35
2016-09-29T08:33:22.520Z,20.33
2016-09-29T08:34:22.528Z,20.38
2016-09-29T08:35:22.512Z,20.47
2016-09-29T08:36:22.512Z,20.53
2016-09-29T08:37:22.532Z,20.62
2016-09-29T08:38:22.526Z,20.54
2016-09-29T08:39:22.531Z,20.58
2016-09-29T08:40:22.530Z,20.54
2016-09-29T08:41:22.552Z,20.58
2016-09-29T08:42:22.564Z,20.71
2016-09-29T08:43:22.557Z,20.65
2016-09-29T08:44:22.586Z,20.58
2016-09-29T08:45:22.514Z,20.8
2016-09-29T08:46:22.606Z,20.71
2016-09-29T08:47:22.572Z,20.76
2016-09-29T08:48:22.552Z,20.86
2016-09-29T08:49:22.539Z,20.98
2016-09-29T08:50:22.556Z,21.04
2016-09-29T08:51:22.543Z,21.24
2016-09-29T08:52:22.567Z,21.21
2016-09-29T08:53:22.519Z,21.32
2016-09-29T08:54:22.539Z,21.34
2016-09-29T08:55:22.584Z,21.45
2016-09-29T08:56:22.539Z,21.57
2016-09-29T08:57:22.575Z,21.64
2016-09-29T08:58:22.561Z,21.72
2016-09-29T08:59:22.690Z,21.6
2016-09-29T09:00:22.581Z,21.63
2016-09-29T09:01:22.542Z,21.66
2016-09-29T09:02:22.589Z,21.72
2016-09-29T09:03:22.559Z,21.74
2016-09-29T09:04:22.561Z,21.83
2016-09-29T09:05:22.566Z,21.98
2016-09-29T09:06:22.536Z,21.97
2016-09-29T09:07:22.558Z,22.07
2016-09-29T09:08:22.578Z,22.12
2016-09-29T09:09:22.542Z,22.23
2016-09-29T09:10:22.549Z,22.28
2016-09-29T09:11:22.571Z,22.41
2016-09-29T09:12:22.560Z,22.35
2016-09-29T09:13:22.539Z,22.31
2016-09-29T09:14:22.542Z,22.27
2016-09-29T09:15:22.552Z,22.16
2016-09-29T09:16:22.575Z,22.06
2016-09-29T09:17:25.987Z,22.07
2016-09-29T09:18:22.602Z,21.99
2016-09-29T09:19:22.566Z,21.9
2016-09-29T09:20:22.545Z,21.82
2016-09-29T09:21:22.600Z,21.76
2016-09-29T09:22:22.568Z,21.75
2016-09-29T09:23:22.577Z,21.79
2016-09-29T09:24:22.540Z,21.81
2016-09-29T09:25:22.616Z,21.85
2016-09-29T09:26:22.597Z,21.83
2016-09-29T09:27:22.581Z,21.78
2016-09-29T09:28:22.565Z,21.79
2016-09-29T09:29:22.616Z,21.79
2016-09-29T09:30:22.665Z,21.72
2016-09-29T09:31:22.616Z,21.74
2016-09-29T09:32:22.547Z,21.6
2016-09-29T09:33:22.686Z,21.57
2016-09-29T09:34:22.570Z,21.61
2016-09-29T09:35:22.609Z,21.63
2016-09-29T09:36:22.574Z,21.64
2016-09-29T09:37:22.597Z,21.63
2016-09-29T09:38:22.639Z,21.66
2016-09-29T09:39:22.603Z,21.5
2016-09-29T09:40:22.606Z,21.46
2016-09-29T09:41:22.591Z,21.57
2016-09-29T09:42:22.614Z,21.63
2016-09-29T09:43:22.609Z,21.66
2016-09-29T09:44:22.606Z,21.81
2016-09-29T09:45:22.641Z,21.81
2016-09-29T09:46:22.605Z,21.78
2016-09-29T09:47:22.647Z,21.74
2016-09-29T09:48:22.597Z,21.78
2016-09-29T09:49:22.625Z,21.83
2016-09-29T09:50:22.616Z,21.92
2016-09-29T09:51:22.627Z,21.76
2016-09-29T09:52:22.610Z,21.76
2016-09-29T09:53:22.621Z,21.83
2016-09-29T09:54:22.605Z,21.81
2016-09-29T09:55:22.604Z,21.74
2016-09-29T09:56:22.589Z,21.74
2016-09-29T09:57:22.610Z,21.75
2016-09-29T09:58:22.614Z,21.63
2016-09-29T09:59:22.601Z,21.54
2016-09-29T10:00:22.597Z,21.61
2016-09-29T10:01:22.671Z,21.64
2016-09-29T10:02:22.635Z,21.56
2016-09-29T10:03:22.594Z,21.66
2016-09-29T10:04:22.612Z,21.63
2016-09-29T10:05:22.571Z,21.66
2016-09-29T10:06:22.578Z,21.72
2016-09-29T10:07:22.581Z,21.81
2016-09-29T10:08:22.600Z,21.83
2016-09-29T10:09:22.614Z,21.9
2016-09-29T10:10:22.622Z,21.85
2016-09-29T10:11:22.593Z,22.02
2016-09-29T10:12:22.619Z,22.2
2016-09-29T10:13:22.619Z,22.22
2016-09-29T10:14:22.603Z,22.25
2016-09-29T10:15:22.609Z,22.27
2016-09-29T10:16:22.632Z,22.34
2016-09-29T10:17:22.632Z,22.39
2016-09-29T10:18:22.701Z,22.37
2016-09-29T10:19:22.631Z,22.37
2016-09-29T10:20:22.624Z,22.38
2016-09-29T10:21:22.624Z,22.44
2016-09-29T10:22:22.664Z,22.49
2016-09-29T10:23:22.638Z,22.44
2016-09-29T10:24:22.622Z,22.46
2016-09-29T10:25:22.623Z,22.44
2016-09-29T10:26:22.645Z,22.47
2016-09-29T10:27:22.637Z,22.39
2016-09-29T10:28:22.645Z,22.32
2016-09-29T10:29:22.653Z,22.41
2016-09-29T10:30:22.699Z,22.34
2016-09-29T10:31:22.649Z,22.35
2016-09-29T10:32:22.657Z,22.37
2016-09-29T10:33:22.636Z,22.5
2016-09-29T10:34:22.626Z,22.5
2016-09-29T10:35:22.643Z,22.44
2016-09-29T10:36:22.625Z,22.53
2016-09-29T10:37:22.661Z,22.47
2016-09-29T10:38:22.650Z,22.5
2016-09-29T10:39:22.612Z,22.47
2016-09-29T10:40:22.632Z,22.6
2016-09-29T10:41:22.639Z,22.57
2016-09-29T10:42:22.648Z,22.64
2016-09-29T10:43:22.654Z,22.71
2016-09-29T10:44:22.663Z,22.68
2016-09-29T10:45:22.643Z,22.67
2016-09-29T10:46:22.629Z,22.69
2016-09-29T10:47:22.676Z,22.69
2016-09-29T10:48:22.655Z,22.83
2016-09-29T10:49:22.689Z,22.8
2016-09-29T10:50:22.644Z,22.84
2016-09-29T10:51:22.648Z,22.74
2016-09-29T10:52:22.658Z,22.68
2016-09-29T10:53:22.665Z,22.65
2016-09-29T10:54:22.642Z,22.67
2016-09-29T10:55:22.702Z,22.53
2016-09-29T10:56:22.680Z,22.5
2016-09-29T10:57:22.662Z,22.56
2016-09-29T10:58:22.684Z,22.56
2016-09-29T10:59:22.644Z,22.59
2016-09-29T11:00:22.693Z,22.56
2016-09-29T11:01:22.685Z,22.6
2016-09-29T11:02:22.707Z,22.6
2016-09-29T11:03:22.685Z,22.53
2016-09-29T11:04:22.660Z,22.5
2016-09-29T11:05:22.649Z,22.43
2016-09-29T11:06:22.663Z,22.5
2016-09-29T11:07:22.803Z,22.46
2016-09-29T11:08:22.686Z,22.49
2016-09-29T11:09:22.782Z,22.39
2016-09-29T11:10:22.751Z,22.6
2016-09-29T11:11:22.671Z,22.52
2016-09-29T11:12:22.763Z,22.53
2016-09-29T11:13:23.031Z,22.5
2016-09-29T11:14:22.670Z,22.32
2016-09-29T11:15:22.676Z,22.27
2016-09-29T11:16:22.728Z,22.44
2016-09-29T11:17:22.710Z,22.32
2016-09-29T11:18:22.730Z,22.29
2016-09-29T11:19:22.665Z,22.27
2016-09-29T11:20:22.714Z,22.34
2016-09-29T11:21:22.720Z,22.41
2016-09-29T11:22:22.676Z,22.32
2016-09-29T11:23:22.865Z,22.35
2016-09-29T11:24:22.709Z,22.52
2016-09-29T11:25:22.686Z,22.37
2016-09-29T11:26:22.677Z,22.23
2016-09-29T11:27:22.684Z,22.38
2016-09-29T11:28:22.721Z,22.38
2016-09-29T11:29:22.951Z,22.46
2016-09-29T11:30:22.706Z,22.5
2016-09-29T11:31:22.715Z,22.5
2016-09-29T11:32:22.750Z,22.57
2016-09-29T11:33:22.944Z,22.52
2016-09-29T11:34:23.046Z,22.54
2016-09-29T11:35:22.722Z,22.6
2016-09-29T11:36:22.758Z,22.53
2016-09-29T11:37:23.126Z,22.54
2016-09-29T11:38:22.715Z,22.59
2016-09-29T11:39:22.728Z,22.52
2016-09-29T11:40:22.709Z,22.67
2016-09-29T11:41:22.729Z,22.69
2016-09-29T11:42:22.764Z,22.74
2016-09-29T11:43:22.871Z,22.83
2016-09-29T11:44:22.691Z,22.77
2016-09-29T11:45:22.723Z,22.69
2016-09-29T11:46:22.693Z,22.71
2016-09-29T11:47:22.770Z,22.9
2016-09-29T11:48:22.755Z,22.72
2016-09-29T11:49:22.714Z,22.78
2016-09-29T11:50:22.960Z,22.89
2016-09-29T11:51:22.753Z,23.01
2016-09-29T11:52:22.767Z,23.17
2016-09-29T11:53:22.747Z,23.22
2016-09-29T11:54:22.721Z,23.32
2016-09-29T11:55:22.710Z,23.19
2016-09-29T11:56:22.741Z,23.49
2016-09-29T11:57:22.747Z,23.27
2016-09-29T11:58:22.753Z,23.29
2016-09-29T11:59:22.723Z,23.14
2016-09-29T12:00:23.267Z,23.24
2016-09-29T12:01:22.825Z,23.32
2016-09-29T12:02:22.731Z,23.05
2016-09-29T12:03:22.779Z,22.96
2016-09-29T12:04:22.721Z,23.23
2016-09-29T12:05:22.874Z,23.08
2016-09-29T12:06:22.954Z,23.12
2016-09-29T12:07:22.733Z,22.89
2016-09-29T12:08:22.808Z,23.08
2016-09-29T12:09:22.726Z,23.08
2016-09-29T12:10:22.898Z,23.07
2016-09-29T12:11:22.756Z,23.09
2016-09-29T12:12:22.764Z,23.09
2016-09-29T12:13:22.745Z,22.87
2016-09-29T12:14:22.801Z,23.14
2016-09-29T12:15:22.725Z,23.07
2016-09-29T12:16:22.764Z,23.17
2016-09-29T12:17:22.742Z,23.12
2016-09-29T12:18:22.777Z,23.39
2016-09-29T12:19:22.780Z,23.09
2016-09-29T12:20:22.759Z,23.17
2016-09-29T12:21:22.810Z,22.97
2016-09-29T12:22:22.777Z,22.97
2016-09-29T12:23:22.825Z,23.01
2016-09-29T12:24:22.787Z,22.89
2016-09-29T12:25:22.769Z,22.9
2016-09-29T12:26:22.751Z,22.99
2016-09-29T12:27:22.755Z,22.8
2016-09-29T12:28:22.783Z,22.75
2016-09-29T12:29:22.749Z,22.69
2016-09-29T12:30:22.744Z,22.59
2016-09-29T12:31:22.718Z,22.72
2016-09-29T12:32:22.753Z,22.75
2016-09-29T12:33:22.777Z,22.62
2016-09-29T12:34:22.739Z,22.6
2016-09-29T12:35:22.756Z,22.47
2016-09-29T12:36:22.820Z,22.75
2016-09-29T12:37:22.761Z,22.53
2016-09-29T12:38:22.839Z,22.53
2016-09-29T12:39:22.846Z,22.47
2016-09-29T12:40:22.772Z,22.29
2016-09-29T12:41:22.775Z,22.46
2016-09-29T12:42:22.767Z,22.46
2016-09-29T12:43:22.754Z,22.41
2016-09-29T12:44:22.758Z,22.5
2016-09-29T12:45:22.761Z,22.39
2016-09-29T12:46:22.791Z,22.46
2016-09-29T12:47:22.798Z,22.43
2016-09-29T12:48:22.796Z,22.47
2016-09-29T12:49:22.798Z,22.49
2016-09-29T12:50:22.790Z,22.5
2016-09-29T12:51:22.749Z,22.47
2016-09-29T12:52:22.784Z,22.47
2016-09-29T12:53:23.304Z,22.41
2016-09-29T12:54:22.769Z,22.47
2016-09-29T12:55:22.745Z,22.47